M I D A S
Marine Information and Data Acquisition System
Tripno 1942 of the Zeeleeuw from 2010-08-20 08:00:00 to 2010-08-20 17:00:00
Back to CruiseResearch ActivitiesStationsMapUnderway DataData graphs

EquipmentUnitsComment
TimeDGPSUTC
LatitudeDGPSDM.mWGS84
LongitudeDGPSDM.mWGS84
HeadingGyrodeg 
SOGDGPSknotsSpeed over ground
COGDGPSdegCourse over ground
DepthEcho soundermeters200 kHz
Missing or incorrect values are displayed as -999
Navigation data collected by the RV Zeeleeuw from 2010-08-20 08:00:00 to 2010-08-20 17:00:00
                                                                                    Next 1000 lines
Time Latitude Longitude Heading SOG COG Depth
2010-08-20 08:00:20 51°22.794 2°43.468 190 4.79 178 -999
2010-08-20 08:00:30 51°22.785 2°43.481 190 4.79 178 -999
2010-08-20 08:00:40 51°22.78 2°43.492 190 4.79 178 -999
2010-08-20 08:00:50 51°22.777 2°43.503 190 4.79 178 -999
2010-08-20 08:01:00 51°22.776 2°43.513 122.7 2.29 102 -999
2010-08-20 08:01:10 51°22.776 2°43.524 122.7 2.29 102 -999
2010-08-20 08:01:20 51°22.776 2°43.534 122.7 2.29 102 -999
2010-08-20 08:01:30 51°22.777 2°43.545 122.7 2.29 102 -999
2010-08-20 08:01:40 51°22.778 2°43.554 122.7 2.29 102 -999
2010-08-20 08:01:50 51°22.779 2°43.565 122.7 2.29 102 -999
2010-08-20 08:02:00 51°22.781 2°43.574 99.2 2.29 71 -999
2010-08-20 08:02:10 51°22.783 2°43.584 99.2 2.29 71 -999
2010-08-20 08:02:20 51°22.784 2°43.592 99.2 2.29 71 -999
2010-08-20 08:02:30 51°22.786 2°43.602 99.2 2.29 71 -999
2010-08-20 08:02:40 51°22.787 2°43.61 99.2 2.29 71 -999
2010-08-20 08:02:50 51°22.789 2°43.619 99.2 2.29 71 -999
2010-08-20 08:03:00 51°22.791 2°43.627 99.2 1.89 70 -999
2010-08-20 08:03:10 51°22.792 2°43.635 99.2 1.89 70 -999
2010-08-20 08:03:20 51°22.794 2°43.642 99.2 1.89 70 -999
2010-08-20 08:03:30 51°22.796 2°43.65 99.2 1.89 70 -999
2010-08-20 08:03:40 51°22.798 2°43.658 99.2 1.89 70 -999
2010-08-20 08:03:50 51°22.8 2°43.665 99.2 1.89 70 -999
2010-08-20 08:04:00 51°22.801 2°43.673 104 1.8 69 -999
2010-08-20 08:04:10 51°22.803 2°43.68 104 1.8 69 -999
2010-08-20 08:04:20 51°22.805 2°43.686 104 1.8 69 -999
2010-08-20 08:04:30 51°22.808 2°43.694 104 1.8 69 -999
2010-08-20 08:04:40 51°22.809 2°43.7 104 1.8 69 -999
2010-08-20 08:04:50 51°22.812 2°43.707 104 1.8 69 -999
2010-08-20 08:05:00 51°22.814 2°43.712 105.2 1.3 65 -999
2010-08-20 08:05:10 51°22.815 2°43.719 105.2 1.3 65 -999
2010-08-20 08:05:20 51°22.817 2°43.725 105.2 1.3 65 -999
2010-08-20 08:05:30 51°22.82 2°43.731 105.2 1.3 65 -999
2010-08-20 08:05:40 51°22.821 2°43.737 105.2 1.3 65 -999
2010-08-20 08:05:50 51°22.824 2°43.743 105.2 1.3 65 -999
2010-08-20 08:06:00 51°22.826 2°43.748 107.5 1.5 57 -999
2010-08-20 08:06:10 51°22.828 2°43.753 107.5 1.5 57 -999
2010-08-20 08:06:20 51°22.83 2°43.759 107.5 1.5 57 -999
2010-08-20 08:06:30 51°22.833 2°43.766 107.5 1.5 57 -999
2010-08-20 08:06:40 51°22.835 2°43.771 107.5 1.5 57 -999
2010-08-20 08:06:50 51°22.837 2°43.776 107.5 1.5 57 -999
2010-08-20 08:07:00 51°22.84 2°43.781 110.7 1.5 53 -999
2010-08-20 08:07:10 51°22.842 2°43.786 110.7 1.5 53 -999
2010-08-20 08:07:20 51°22.844 2°43.791 110.7 1.5 53 -999
2010-08-20 08:07:30 51°22.847 2°43.797 110.7 1.5 53 -999
2010-08-20 08:07:40 51°22.849 2°43.802 110.7 1.5 53 -999
2010-08-20 08:07:50 51°22.851 2°43.811 110.7 1.5 53 -999
2010-08-20 08:08:00 51°22.852 2°43.819 103.7 2.29 74 -999
2010-08-20 08:08:10 51°22.854 2°43.833 103.7 2.29 74 -999
2010-08-20 08:08:20 51°22.857 2°43.847 103.7 2.29 74 -999
2010-08-20 08:08:30 51°22.863 2°43.866 103.7 2.29 74 -999
2010-08-20 08:08:40 51°22.87 2°43.881 103.7 2.29 74 -999
2010-08-20 08:08:50 51°22.883 2°43.896 103.7 2.29 74 -999
2010-08-20 08:09:00 51°22.895 2°43.905 23.3 5.29 22 -999
2010-08-20 08:09:10 51°22.911 2°43.91 23.3 5.29 22 -999
2010-08-20 08:09:20 51°22.924 2°43.906 23.3 5.29 22 -999
2010-08-20 08:09:30 51°22.939 2°43.896 23.3 5.29 22 -999
2010-08-20 08:09:40 51°22.948 2°43.883 23.3 5.29 22 -999
2010-08-20 08:09:50 51°22.956 2°43.863 23.3 5.29 22 -999
2010-08-20 08:10:00 51°22.96 2°43.843 281.6 5.2 287 -999
2010-08-20 08:10:10 51°22.962 2°43.818 281.6 5.2 287 -999
2010-08-20 08:10:20 51°22.96 2°43.793 281.6 5.2 287 -999
2010-08-20 08:10:30 51°22.956 2°43.767 281.6 5.2 287 -999
2010-08-20 08:10:40 51°22.949 2°43.743 281.6 5.2 287 -999
2010-08-20 08:10:50 51°22.939 2°43.715 281.6 5.2 287 -999
2010-08-20 08:11:00 51°22.93 2°43.693 235.1 6.79 234 -999
2010-08-20 08:11:10 51°22.917 2°43.665 235.1 6.79 234 -999
2010-08-20 08:11:20 51°22.908 2°43.642 235.1 6.79 234 -999
2010-08-20 08:11:30 51°22.898 2°43.619 235.1 6.79 234 -999
2010-08-20 08:11:40 51°22.889 2°43.597 235.1 6.79 234 -999
2010-08-20 08:11:50 51°22.879 2°43.578 235.1 6.79 234 -999
2010-08-20 08:12:00 51°22.871 2°43.564 229.5 4.59 228 -999
2010-08-20 08:12:10 51°22.863 2°43.551 229.5 4.59 228 -999
2010-08-20 08:12:20 51°22.855 2°43.541 229.5 4.59 228 -999
2010-08-20 08:12:30 51°22.847 2°43.533 229.5 4.59 228 -999
2010-08-20 08:12:40 51°22.841 2°43.527 229.5 4.59 228 -999
2010-08-20 08:12:50 51°22.834 2°43.522 229.5 4.59 228 -999
2010-08-20 08:13:00 51°22.828 2°43.518 210.8 2.29 198 -999
2010-08-20 08:13:10 51°22.823 2°43.515 210.8 2.29 198 -999
2010-08-20 08:13:20 51°22.818 2°43.513 210.8 2.29 198 -999
2010-08-20 08:13:30 51°22.813 2°43.511 210.8 2.29 198 -999
2010-08-20 08:13:40 51°22.809 2°43.51 210.8 2.29 198 -999
2010-08-20 08:13:50 51°22.804 2°43.509 210.8 2.29 198 -999
2010-08-20 08:14:00 51°22.801 2°43.509 202.4 1.39 175 -999
2010-08-20 08:14:10 51°22.797 2°43.509 202.4 1.39 175 -999
2010-08-20 08:14:20 51°22.794 2°43.509 202.4 1.39 175 -999
2010-08-20 08:14:30 51°22.791 2°43.51 202.4 1.39 175 -999
2010-08-20 08:14:40 51°22.789 2°43.511 202.4 1.39 175 -999
2010-08-20 08:14:50 51°22.786 2°43.513 202.4 1.39 175 -999
2010-08-20 08:15:00 51°22.785 2°43.514 199.1 0.9 148 -999
2010-08-20 08:15:10 51°22.783 2°43.515 199.1 0.9 148 -999
2010-08-20 08:15:20 51°22.782 2°43.517 199.1 0.9 148 -999
2010-08-20 08:15:30 51°22.781 2°43.519 199.1 0.9 148 -999
2010-08-20 08:15:40 51°22.78 2°43.521 199.1 0.9 148 -999
2010-08-20 08:15:50 51°22.779 2°43.524 199.1 0.9 148 -999
2010-08-20 08:16:00 51°22.78 2°43.526 199.5 0.59 56 -999
2010-08-20 08:16:10 51°22.782 2°43.53 199.5 0.59 56 -999
2010-08-20 08:16:20 51°22.785 2°43.534 199.5 0.59 56 -999
2010-08-20 08:16:30 51°22.791 2°43.542 199.5 0.59 56 -999
2010-08-20 08:16:40 51°22.794 2°43.548 199.5 0.59 56 -999
2010-08-20 08:16:50 51°22.8 2°43.555 199.5 0.59 56 -999
2010-08-20 08:17:00 51°22.803 2°43.559 220.4 1.19 51 -999
2010-08-20 08:17:10 51°22.803 2°43.56 220.4 1.19 51 -999
2010-08-20 08:17:20 51°22.803 2°43.557 220.4 1.19 51 -999
2010-08-20 08:17:30 51°22.801 2°43.551 220.4 1.19 51 -999
2010-08-20 08:17:40 51°22.801 2°43.545 220.4 1.19 51 -999
2010-08-20 08:17:50 51°22.802 2°43.54 220.4 1.19 51 -999
2010-08-20 08:18:00 51°22.803 2°43.535 264.5 1.1 289 -999
2010-08-20 08:18:10 51°22.805 2°43.53 264.5 1.1 289 -999
2010-08-20 08:18:20 51°22.807 2°43.528 264.5 1.1 289 -999
2010-08-20 08:18:30 51°22.808 2°43.524 264.5 1.1 289 -999
2010-08-20 08:18:40 51°22.81 2°43.522 264.5 1.1 289 -999
2010-08-20 08:18:50 51°22.812 2°43.519 264.5 1.1 289 -999
2010-08-20 08:19:00 51°22.814 2°43.518 265.1 0.9 332 -999
2010-08-20 08:19:10 51°22.816 2°43.515 265.1 0.9 332 -999
2010-08-20 08:19:20 51°22.818 2°43.515 265.1 0.9 332 -999
2010-08-20 08:19:30 51°22.82 2°43.513 265.1 0.9 332 -999
2010-08-20 08:19:40 51°22.822 2°43.512 265.1 0.9 332 -999
2010-08-20 08:19:50 51°22.823 2°43.512 265.1 0.9 332 -999
2010-08-20 08:20:00 51°22.825 2°43.512 262.3 0.69 347 -999
2010-08-20 08:20:10 51°22.827 2°43.512 262.3 0.69 347 -999
2010-08-20 08:20:20 51°22.828 2°43.512 262.3 0.69 347 -999
2010-08-20 08:20:30 51°22.83 2°43.512 262.3 0.69 347 -999
2010-08-20 08:20:40 51°22.832 2°43.512 262.3 0.69 347 -999
2010-08-20 08:20:50 51°22.834 2°43.513 262.3 0.69 347 -999
2010-08-20 08:21:00 51°22.836 2°43.514 260.5 0.69 23 -999
2010-08-20 08:21:10 51°22.838 2°43.515 260.5 0.69 23 -999
2010-08-20 08:21:20 51°22.839 2°43.516 260.5 0.69 23 -999
2010-08-20 08:21:30 51°22.842 2°43.517 260.5 0.69 23 -999
2010-08-20 08:21:40 51°22.843 2°43.519 260.5 0.69 23 -999
2010-08-20 08:21:50 51°22.845 2°43.52 260.5 0.69 23 -999
2010-08-20 08:22:00 51°22.847 2°43.522 259.8 0.9 23 -999
2010-08-20 08:22:10 51°22.85 2°43.524 259.8 0.9 23 -999
2010-08-20 08:22:20 51°22.851 2°43.526 259.8 0.9 23 -999
2010-08-20 08:22:30 51°22.853 2°43.527 259.8 0.9 23 -999
2010-08-20 08:22:40 51°22.855 2°43.53 259.8 0.9 23 -999
2010-08-20 08:22:50 51°22.857 2°43.532 259.8 0.9 23 -999
2010-08-20 08:23:00 51°22.859 2°43.534 261.3 1 30 -999
2010-08-20 08:23:10 51°22.861 2°43.536 261.3 1 30 -999
2010-08-20 08:23:20 51°22.863 2°43.538 261.3 1 30 -999
2010-08-20 08:23:30 51°22.866 2°43.541 261.3 1 30 -999
2010-08-20 08:23:40 51°22.867 2°43.543 261.3 1 30 -999
2010-08-20 08:23:50 51°22.87 2°43.545 261.3 1 30 -999
2010-08-20 08:24:00 51°22.871 2°43.548 260.6 0.9 38 -999
2010-08-20 08:24:10 51°22.874 2°43.55 260.6 0.9 38 -999
2010-08-20 08:24:20 51°22.876 2°43.553 260.6 0.9 38 -999
2010-08-20 08:24:30 51°22.878 2°43.555 260.6 0.9 38 -999
2010-08-20 08:24:40 51°22.88 2°43.557 260.6 0.9 38 -999
2010-08-20 08:24:50 51°22.882 2°43.56 260.6 0.9 38 -999
2010-08-20 08:25:00 51°22.884 2°43.562 258.5 0.9 41 -999
2010-08-20 08:25:10 51°22.886 2°43.564 258.5 0.9 41 -999
2010-08-20 08:25:20 51°22.888 2°43.567 258.5 0.9 41 -999
2010-08-20 08:25:30 51°22.89 2°43.569 258.5 0.9 41 -999
2010-08-20 08:25:40 51°22.892 2°43.572 258.5 0.9 41 -999
2010-08-20 08:25:50 51°22.894 2°43.574 258.5 0.9 41 -999
2010-08-20 08:26:00 51°22.896 2°43.577 257.3 1 36 -999
2010-08-20 08:26:10 51°22.898 2°43.579 257.3 1 36 -999
2010-08-20 08:26:20 51°22.9 2°43.581 257.3 1 36 -999
2010-08-20 08:26:30 51°22.902 2°43.584 257.3 1 36 -999
2010-08-20 08:26:40 51°22.905 2°43.586 257.3 1 36 -999
2010-08-20 08:26:50 51°22.907 2°43.589 257.3 1 36 -999
2010-08-20 08:27:00 51°22.909 2°43.592 258.6 1 39 -999
2010-08-20 08:27:10 51°22.911 2°43.595 258.6 1 39 -999
2010-08-20 08:27:20 51°22.913 2°43.597 258.6 1 39 -999
2010-08-20 08:27:30 51°22.915 2°43.599 258.6 1 39 -999
2010-08-20 08:27:40 51°22.917 2°43.602 258.6 1 39 -999
2010-08-20 08:27:50 51°22.919 2°43.605 258.6 1 39 -999
2010-08-20 08:28:00 51°22.922 2°43.607 261.1 0.9 39 -999
2010-08-20 08:28:10 51°22.924 2°43.61 261.1 0.9 39 -999
2010-08-20 08:28:20 51°22.926 2°43.612 261.1 0.9 39 -999
2010-08-20 08:28:30 51°22.928 2°43.615 261.1 0.9 39 -999
2010-08-20 08:28:40 51°22.93 2°43.617 261.1 0.9 39 -999
2010-08-20 08:28:50 51°22.933 2°43.62 261.1 0.9 39 -999
2010-08-20 08:29:00 51°22.935 2°43.623 262.1 1 41 -999
2010-08-20 08:29:10 51°22.937 2°43.626 262.1 1 41 -999
2010-08-20 08:29:20 51°22.939 2°43.629 262.1 1 41 -999
2010-08-20 08:29:30 51°22.941 2°43.632 262.1 1 41 -999
2010-08-20 08:29:40 51°22.944 2°43.634 262.1 1 41 -999
2010-08-20 08:29:50 51°22.946 2°43.638 262.1 1 41 -999
2010-08-20 08:30:00 51°22.948 2°43.641 260.8 1.1 41 -999
2010-08-20 08:30:10 51°22.951 2°43.644 260.8 1.1 41 -999
2010-08-20 08:30:20 51°22.953 2°43.647 260.8 1.1 41 -999
2010-08-20 08:30:30 51°22.956 2°43.65 260.8 1.1 41 -999
2010-08-20 08:30:40 51°22.958 2°43.653 260.8 1.1 41 -999
2010-08-20 08:30:50 51°22.96 2°43.656 260.8 1.1 41 -999
2010-08-20 08:31:00 51°22.963 2°43.66 261.8 1.1 40 -999
2010-08-20 08:31:10 51°22.966 2°43.664 261.8 1.1 40 -999
2010-08-20 08:31:20 51°22.968 2°43.667 261.8 1.1 40 -999
2010-08-20 08:31:30 51°22.971 2°43.671 261.8 1.1 40 -999
2010-08-20 08:31:40 51°22.973 2°43.674 261.8 1.1 40 -999
2010-08-20 08:31:50 51°22.976 2°43.678 261.8 1.1 40 -999
2010-08-20 08:32:00 51°22.978 2°43.681 266 1.19 42 -999
2010-08-20 08:32:10 51°22.981 2°43.684 266 1.19 42 -999
2010-08-20 08:32:20 51°22.983 2°43.685 266 1.19 42 -999
2010-08-20 08:32:30 51°22.985 2°43.685 266 1.19 42 -999
2010-08-20 08:32:40 51°22.986 2°43.682 266 1.19 42 -999
2010-08-20 08:32:50 51°22.986 2°43.68 266 1.19 42 -999
2010-08-20 08:33:00 51°22.986 2°43.676 239 0.9 253 -999
2010-08-20 08:33:10 51°22.984 2°43.671 239 0.9 253 -999
2010-08-20 08:33:20 51°22.981 2°43.665 239 0.9 253 -999
2010-08-20 08:33:30 51°22.976 2°43.656 239 0.9 253 -999
2010-08-20 08:33:40 51°22.971 2°43.649 239 0.9 253 -999
2010-08-20 08:33:50 51°22.963 2°43.639 239 0.9 253 -999
2010-08-20 08:34:00 51°22.956 2°43.63 221.9 3.5 218 -999
2010-08-20 08:34:10 51°22.947 2°43.619 221.9 3.5 218 -999
2010-08-20 08:34:20 51°22.939 2°43.61 221.9 3.5 218 -999
2010-08-20 08:34:30 51°22.929 2°43.599 221.9 3.5 218 -999
2010-08-20 08:34:40 51°22.92 2°43.59 221.9 3.5 218 -999
2010-08-20 08:34:50 51°22.908 2°43.579 221.9 3.5 218 -999
2010-08-20 08:35:00 51°22.898 2°43.571 214.1 4.5 210 -999
2010-08-20 08:35:10 51°22.887 2°43.562 214.1 4.5 210 -999
2010-08-20 08:35:20 51°22.878 2°43.556 214.1 4.5 210 -999
2010-08-20 08:35:30 51°22.87 2°43.551 214.1 4.5 210 -999
2010-08-20 08:35:40 51°22.862 2°43.549 214.1 4.5 210 -999
2010-08-20 08:35:50 51°22.854 2°43.547 214.1 4.5 210 -999
2010-08-20 08:36:00 51°22.848 2°43.547 197.5 2.39 181 -999
2010-08-20 08:36:10 51°22.842 2°43.548 197.5 2.39 181 -999
2010-08-20 08:36:20 51°22.836 2°43.549 197.5 2.39 181 -999
2010-08-20 08:36:30 51°22.83 2°43.551 197.5 2.39 181 -999
2010-08-20 08:36:40 51°22.826 2°43.553 197.5 2.39 181 -999
2010-08-20 08:36:50 51°22.822 2°43.556 197.5 2.39 181 -999
2010-08-20 08:37:00 51°22.819 2°43.558 190.1 1.5 152 -999
2010-08-20 08:37:10 51°22.815 2°43.562 190.1 1.5 152 -999
2010-08-20 08:37:20 51°22.812 2°43.565 190.1 1.5 152 -999
2010-08-20 08:37:30 51°22.809 2°43.568 190.1 1.5 152 -999
2010-08-20 08:37:40 51°22.807 2°43.572 190.1 1.5 152 -999
2010-08-20 08:37:50 51°22.804 2°43.576 190.1 1.5 152 -999
2010-08-20 08:38:00 51°22.802 2°43.58 184.4 1.1 127 -999
2010-08-20 08:38:10 51°22.8 2°43.584 184.4 1.1 127 -999
2010-08-20 08:38:20 51°22.799 2°43.589 184.4 1.1 127 -999
2010-08-20 08:38:30 51°22.798 2°43.593 184.4 1.1 127 -999
2010-08-20 08:38:40 51°22.797 2°43.597 184.4 1.1 127 -999
2010-08-20 08:38:50 51°22.796 2°43.602 184.4 1.1 127 -999
2010-08-20 08:39:00 51°22.795 2°43.607 178.1 1.1 100 -999
2010-08-20 08:39:10 51°22.795 2°43.612 178.1 1.1 100 -999
2010-08-20 08:39:20 51°22.794 2°43.617 178.1 1.1 100 -999
2010-08-20 08:39:30 51°22.794 2°43.622 178.1 1.1 100 -999
2010-08-20 08:39:40 51°22.794 2°43.627 178.1 1.1 100 -999
2010-08-20 08:39:50 51°22.794 2°43.633 178.1 1.1 100 -999
2010-08-20 08:40:00 51°22.794 2°43.638 171.1 1.3 85 -999
2010-08-20 08:40:10 51°22.795 2°43.644 171.1 1.3 85 -999
2010-08-20 08:40:20 51°22.795 2°43.649 171.1 1.3 85 -999
2010-08-20 08:40:30 51°22.796 2°43.655 171.1 1.3 85 -999
2010-08-20 08:40:40 51°22.796 2°43.66 171.1 1.3 85 -999
2010-08-20 08:40:50 51°22.797 2°43.666 171.1 1.3 85 -999
2010-08-20 08:41:00 51°22.798 2°43.671 169.1 1.3 76 -999
2010-08-20 08:41:10 51°22.799 2°43.677 169.1 1.3 76 -999
2010-08-20 08:41:20 51°22.8 2°43.682 169.1 1.3 76 -999
2010-08-20 08:41:30 51°22.801 2°43.688 169.1 1.3 76 -999
2010-08-20 08:41:40 51°22.803 2°43.693 169.1 1.3 76 -999
2010-08-20 08:41:50 51°22.804 2°43.699 169.1 1.3 76 -999
2010-08-20 08:42:00 51°22.805 2°43.704 167.4 1.39 67 -999
2010-08-20 08:42:10 51°22.807 2°43.71 167.4 1.39 67 -999
2010-08-20 08:42:20 51°22.808 2°43.715 167.4 1.39 67 -999
2010-08-20 08:42:30 51°22.81 2°43.721 167.4 1.39 67 -999
2010-08-20 08:42:40 51°22.812 2°43.726 167.4 1.39 67 -999
2010-08-20 08:42:50 51°22.814 2°43.732 167.4 1.39 67 -999
2010-08-20 08:43:00 51°22.815 2°43.738 163 1.5 63 -999
2010-08-20 08:43:10 51°22.817 2°43.744 163 1.5 63 -999
2010-08-20 08:43:20 51°22.819 2°43.749 163 1.5 63 -999
2010-08-20 08:43:30 51°22.822 2°43.755 163 1.5 63 -999
2010-08-20 08:43:40 51°22.824 2°43.76 163 1.5 63 -999
2010-08-20 08:43:50 51°22.826 2°43.766 163 1.5 63 -999
2010-08-20 08:44:00 51°22.829 2°43.772 153.5 1.5 51 -999
2010-08-20 08:44:10 51°22.832 2°43.777 153.5 1.5 51 -999
2010-08-20 08:44:20 51°22.834 2°43.783 153.5 1.5 51 -999
2010-08-20 08:44:30 51°22.836 2°43.79 153.5 1.5 51 -999
2010-08-20 08:44:40 51°22.836 2°43.797 153.5 1.5 51 -999
2010-08-20 08:44:50 51°22.835 2°43.806 153.5 1.5 51 -999
2010-08-20 08:45:00 51°22.831 2°43.812 162 2.2 128 -999
2010-08-20 08:45:10 51°22.826 2°43.82 162 2.2 128 -999
2010-08-20 08:45:20 51°22.82 2°43.822 162 2.2 128 -999
2010-08-20 08:45:30 51°22.812 2°43.822 162 2.2 128 -999
2010-08-20 08:45:40 51°22.807 2°43.818 162 2.2 128 -999
2010-08-20 08:45:50 51°22.802 2°43.81 162 2.2 128 -999
2010-08-20 08:46:00 51°22.798 2°43.8 239.4 2.79 245 -999
2010-08-20 08:46:10 51°22.795 2°43.787 239.4 2.79 245 -999
2010-08-20 08:46:20 51°22.792 2°43.772 239.4 2.79 245 -999
2010-08-20 08:46:30 51°22.788 2°43.754 239.4 2.79 245 -999
2010-08-20 08:46:40 51°22.785 2°43.738 239.4 2.79 245 -999
2010-08-20 08:46:50 51°22.779 2°43.718 239.4 2.79 245 -999
2010-08-20 08:47:00 51°22.775 2°43.7 244.8 4.7 249 -999
2010-08-20 08:47:10 51°22.77 2°43.68 244.8 4.7 249 -999
2010-08-20 08:47:20 51°22.765 2°43.659 244.8 4.7 249 -999
2010-08-20 08:47:30 51°22.761 2°43.641 244.8 4.7 249 -999
2010-08-20 08:47:40 51°22.757 2°43.628 244.8 4.7 249 -999
2010-08-20 08:47:50 51°22.752 2°43.615 244.8 4.7 249 -999
2010-08-20 08:48:00 51°22.748 2°43.606 234.9 2.7 236 -999
2010-08-20 08:48:10 51°22.744 2°43.597 234.9 2.7 236 -999
2010-08-20 08:48:20 51°22.742 2°43.593 234.9 2.7 236 -999
2010-08-20 08:48:30 51°22.74 2°43.59 234.9 2.7 236 -999
2010-08-20 08:48:40 51°22.738 2°43.586 234.9 2.7 236 -999
2010-08-20 08:48:50 51°22.736 2°43.584 234.9 2.7 236 -999
2010-08-20 08:49:00 51°22.735 2°43.582 226 0.69 228 -999
2010-08-20 08:49:10 51°22.734 2°43.58 226 0.69 228 -999
2010-08-20 08:49:20 51°22.733 2°43.579 226 0.69 228 -999
2010-08-20 08:49:30 51°22.732 2°43.579 226 0.69 228 -999
2010-08-20 08:49:40 51°22.731 2°43.578 226 0.69 228 -999
2010-08-20 08:49:50 51°22.731 2°43.578 226 0.69 228 -999
2010-08-20 08:50:00 51°22.73 2°43.578 225 0.1 231 -999
2010-08-20 08:50:10 51°22.73 2°43.578 225 0.1 231 -999
2010-08-20 08:50:20 51°22.73 2°43.578 225 0.1 231 -999
2010-08-20 08:50:30 51°22.73 2°43.579 225 0.1 231 -999
2010-08-20 08:50:40 51°22.731 2°43.58 225 0.1 231 -999
2010-08-20 08:50:50 51°22.731 2°43.581 225 0.1 231 -999
2010-08-20 08:51:00 51°22.732 2°43.582 226.6 0.29 55 -999
2010-08-20 08:51:10 51°22.732 2°43.585 226.6 0.29 55 -999
2010-08-20 08:51:20 51°22.733 2°43.586 226.6 0.29 55 -999
2010-08-20 08:51:30 51°22.734 2°43.588 226.6 0.29 55 -999
2010-08-20 08:51:40 51°22.735 2°43.589 226.6 0.29 55 -999
2010-08-20 08:51:50 51°22.737 2°43.592 226.6 0.29 55 -999
2010-08-20 08:52:00 51°22.738 2°43.593 228.6 0.69 49 -999
2010-08-20 08:52:10 51°22.739 2°43.596 228.6 0.69 49 -999
2010-08-20 08:52:20 51°22.74 2°43.598 228.6 0.69 49 -999
2010-08-20 08:52:30 51°22.742 2°43.601 228.6 0.69 49 -999
2010-08-20 08:52:40 51°22.743 2°43.603 228.6 0.69 49 -999
2010-08-20 08:52:50 51°22.745 2°43.605 228.6 0.69 49 -999
2010-08-20 08:53:00 51°22.746 2°43.608 227.8 0.8 52 -999
2010-08-20 08:53:10 51°22.748 2°43.611 227.8 0.8 52 -999
2010-08-20 08:53:20 51°22.75 2°43.614 227.8 0.8 52 -999
2010-08-20 08:53:30 51°22.752 2°43.617 227.8 0.8 52 -999
2010-08-20 08:53:40 51°22.753 2°43.619 227.8 0.8 52 -999
2010-08-20 08:53:50 51°22.755 2°43.623 227.8 0.8 52 -999
2010-08-20 08:54:00 51°22.757 2°43.625 228.6 0.9 44 -999
2010-08-20 08:54:10 51°22.759 2°43.628 228.6 0.9 44 -999
2010-08-20 08:54:20 51°22.76 2°43.631 228.6 0.9 44 -999
2010-08-20 08:54:30 51°22.762 2°43.634 228.6 0.9 44 -999
2010-08-20 08:54:40 51°22.764 2°43.637 228.6 0.9 44 -999
2010-08-20 08:54:50 51°22.766 2°43.64 228.6 0.9 44 -999
2010-08-20 08:55:00 51°22.768 2°43.643 229.6 1 42 -999
2010-08-20 08:55:10 51°22.77 2°43.645 229.6 1 42 -999
2010-08-20 08:55:20 51°22.772 2°43.648 229.6 1 42 -999
2010-08-20 08:55:30 51°22.775 2°43.652 229.6 1 42 -999
2010-08-20 08:55:40 51°22.777 2°43.655 229.6 1 42 -999
2010-08-20 08:55:50 51°22.779 2°43.658 229.6 1 42 -999
2010-08-20 08:56:00 51°22.781 2°43.661 232.9 1.1 38 -999
2010-08-20 08:56:10 51°22.784 2°43.664 232.9 1.1 38 -999
2010-08-20 08:56:20 51°22.786 2°43.667 232.9 1.1 38 -999
2010-08-20 08:56:30 51°22.788 2°43.67 232.9 1.1 38 -999
2010-08-20 08:56:40 51°22.791 2°43.674 232.9 1.1 38 -999
2010-08-20 08:56:50 51°22.793 2°43.677 232.9 1.1 38 -999
2010-08-20 08:57:00 51°22.796 2°43.68 236.8 1.19 38 -999
2010-08-20 08:57:10 51°22.798 2°43.684 236.8 1.19 38 -999
2010-08-20 08:57:20 51°22.8 2°43.687 236.8 1.19 38 -999
2010-08-20 08:57:30 51°22.803 2°43.69 236.8 1.19 38 -999
2010-08-20 08:57:40 51°22.806 2°43.693 236.8 1.19 38 -999
2010-08-20 08:57:50 51°22.808 2°43.698 236.8 1.19 38 -999
2010-08-20 08:58:00 51°22.811 2°43.701 240.8 1.19 34 -999
2010-08-20 08:58:10 51°22.813 2°43.704 240.8 1.19 34 -999
2010-08-20 08:58:20 51°22.815 2°43.704 240.8 1.19 34 -999
2010-08-20 08:58:30 51°22.816 2°43.702 240.8 1.19 34 -999
2010-08-20 08:58:40 51°22.818 2°43.698 240.8 1.19 34 -999
2010-08-20 08:58:50 51°22.82 2°43.691 240.8 1.19 34 -999
2010-08-20 08:59:00 51°22.824 2°43.682 281.8 3 307 -999
2010-08-20 08:59:10 51°22.832 2°43.671 281.8 3 307 -999
2010-08-20 08:59:20 51°22.844 2°43.662 281.8 3 307 -999
2010-08-20 08:59:30 51°22.856 2°43.659 281.8 3 307 -999
2010-08-20 08:59:40 51°22.869 2°43.659 281.8 3 307 -999
2010-08-20 08:59:50 51°22.881 2°43.663 281.8 3 307 -999
2010-08-20 09:00:00 51°22.893 2°43.669 5.2 4.5 20 -999
2010-08-20 09:00:10 51°22.906 2°43.679 5.2 4.5 20 -999
2010-08-20 09:00:20 51°22.915 2°43.69 5.2 4.5 20 -999
2010-08-20 09:00:30 51°22.925 2°43.702 5.2 4.5 20 -999
2010-08-20 09:00:40 51°22.933 2°43.716 5.2 4.5 20 -999
2010-08-20 09:00:50 51°22.941 2°43.728 5.2 4.5 20 -999
2010-08-20 09:01:00 51°22.947 2°43.739 45 3.1 48 -999
2010-08-20 09:01:10 51°22.952 2°43.749 45 3.1 48 -999
2010-08-20 09:01:20 51°22.957 2°43.757 45 3.1 48 -999
2010-08-20 09:01:30 51°22.964 2°43.768 45 3.1 48 -999
2010-08-20 09:01:40 51°22.969 2°43.777 45 3.1 48 -999
2010-08-20 09:01:50 51°22.977 2°43.789 45 3.1 48 -999
2010-08-20 09:02:00 51°22.986 2°43.802 34.1 4.59 38 -999
2010-08-20 09:02:10 51°23.003 2°43.818 34.1 4.59 38 -999
2010-08-20 09:02:20 51°23.022 2°43.829 34.1 4.59 38 -999
2010-08-20 09:02:30 51°23.048 2°43.835 34.1 4.59 38 -999
2010-08-20 09:02:40 51°23.073 2°43.834 34.1 4.59 38 -999
2010-08-20 09:02:50 51°23.101 2°43.832 34.1 4.59 38 -999
2010-08-20 09:03:00 51°23.132 2°43.835 357.1 11.3 5 -999
2010-08-20 09:03:10 51°23.167 2°43.847 357.1 11.3 5 -999
2010-08-20 09:03:20 51°23.196 2°43.858 357.1 11.3 5 -999
2010-08-20 09:03:30 51°23.232 2°43.869 357.1 11.3 5 -999
2010-08-20 09:03:40 51°23.262 2°43.877 357.1 11.3 5 -999
2010-08-20 09:03:50 51°23.3 2°43.884 357.1 11.3 5 -999
2010-08-20 09:04:00 51°23.33 2°43.89 2.7 12.3 7 -999
2010-08-20 09:04:10 51°23.364 2°43.9 2.7 12.3 7 -999
2010-08-20 09:04:20 51°23.397 2°43.915 2.7 12.3 7 -999
2010-08-20 09:04:30 51°23.433 2°43.938 2.7 12.3 7 -999
2010-08-20 09:04:40 51°23.461 2°43.96 2.7 12.3 7 -999
2010-08-20 09:04:50 51°23.496 2°43.985 2.7 12.3 7 -999
2010-08-20 09:05:00 51°23.525 2°44 16.5 12 18 -999
2010-08-20 09:05:10 51°23.558 2°44.015 16.5 12 18 -999
2010-08-20 09:05:20 51°23.584 2°44.026 16.5 12 18 -999
2010-08-20 09:05:30 51°23.608 2°44.049 16.5 12 18 -999
2010-08-20 09:05:40 51°23.628 2°44.078 16.5 12 18 -999
2010-08-20 09:05:50 51°23.643 2°44.114 16.5 12 18 -999
2010-08-20 09:06:00 51°23.652 2°44.145 66.5 8.5 65 -999
2010-08-20 09:06:10 51°23.662 2°44.18 66.5 8.5 65 -999
2010-08-20 09:06:20 51°23.673 2°44.213 66.5 8.5 65 -999
2010-08-20 09:06:30 51°23.686 2°44.247 66.5 8.5 65 -999
2010-08-20 09:06:40 51°23.698 2°44.275 66.5 8.5 65 -999
2010-08-20 09:06:50 51°23.714 2°44.307 66.5 8.5 65 -999
2010-08-20 09:07:00 51°23.727 2°44.334 49.2 8.5 50 -999
2010-08-20 09:07:10 51°23.743 2°44.361 49.2 8.5 50 -999
2010-08-20 09:07:20 51°23.76 2°44.387 49.2 8.5 50 -999
2010-08-20 09:07:30 51°23.779 2°44.414 49.2 8.5 50 -999
2010-08-20 09:07:40 51°23.795 2°44.434 49.2 8.5 50 -999
2010-08-20 09:07:50 51°23.816 2°44.458 49.2 8.5 50 -999
2010-08-20 09:08:00 51°23.833 2°44.476 30 8.19 32 -999
2010-08-20 09:08:10 51°23.855 2°44.496 30 8.19 32 -999
2010-08-20 09:08:20 51°23.872 2°44.511 30 8.19 32 -999
2010-08-20 09:08:30 51°23.895 2°44.529 30 8.19 32 -999
2010-08-20 09:08:40 51°23.913 2°44.542 30 8.19 32 -999
2010-08-20 09:08:50 51°23.934 2°44.555 30 8.19 32 -999
2010-08-20 09:09:00 51°23.953 2°44.559 5.2 7 8 -999
2010-08-20 09:09:10 51°23.972 2°44.557 5.2 7 8 -999
2010-08-20 09:09:20 51°23.985 2°44.551 5.2 7 8 -999
2010-08-20 09:09:30 51°23.998 2°44.538 5.2 7 8 -999
2010-08-20 09:09:40 51°24.006 2°44.525 5.2 7 8 -999
2010-08-20 09:09:50 51°24.011 2°44.508 5.2 7 8 -999
2010-08-20 09:10:00 51°24.014 2°44.492 273.5 3.7 281 -999
2010-08-20 09:10:10 51°24.013 2°44.476 273.5 3.7 281 -999
2010-08-20 09:10:20 51°24.009 2°44.464 273.5 3.7 281 -999
2010-08-20 09:10:30 51°24.001 2°44.452 273.5 3.7 281 -999
2010-08-20 09:10:40 51°23.99 2°44.44 273.5 3.7 281 -999
2010-08-20 09:10:50 51°23.972 2°44.425 273.5 3.7 281 -999
2010-08-20 09:11:00 51°23.949 2°44.407 210 9.4 207 -999
2010-08-20 09:11:10 51°23.921 2°44.384 210 9.4 207 -999
2010-08-20 09:11:20 51°23.896 2°44.364 210 9.4 207 -999
2010-08-20 09:11:30 51°23.865 2°44.339 210 9.4 207 -999
2010-08-20 09:11:40 51°23.839 2°44.319 210 9.4 207 -999
2010-08-20 09:11:50 51°23.807 2°44.293 210 9.4 207 -999
2010-08-20 09:12:00 51°23.781 2°44.272 208.4 11.8 206 -999
2010-08-20 09:12:10 51°23.749 2°44.246 208.4 11.8 206 -999
2010-08-20 09:12:20 51°23.722 2°44.225 208.4 11.8 206 -999
2010-08-20 09:12:30 51°23.691 2°44.198 208.4 11.8 206 -999
2010-08-20 09:12:40 51°23.664 2°44.177 208.4 11.8 206 -999
2010-08-20 09:12:50 51°23.632 2°44.152 208.4 11.8 206 -999
2010-08-20 09:13:00 51°23.605 2°44.13 209 11.8 206 -999
2010-08-20 09:13:10 51°23.573 2°44.104 209 11.8 206 -999
2010-08-20 09:13:20 51°23.547 2°44.082 209 11.8 206 -999
2010-08-20 09:13:30 51°23.515 2°44.054 209 11.8 206 -999
2010-08-20 09:13:40 51°23.489 2°44.033 209 11.8 206 -999
2010-08-20 09:13:50 51°23.456 2°44.007 209 11.8 206 -999
2010-08-20 09:14:00 51°23.43 2°43.986 208.8 11.8 206 -999
2010-08-20 09:14:10 51°23.398 2°43.96 208.8 11.8 206 -999
2010-08-20 09:14:20 51°23.371 2°43.939 208.8 11.8 206 -999
2010-08-20 09:14:30 51°23.339 2°43.913 208.8 11.8 206 -999
2010-08-20 09:14:40 51°23.316 2°43.893 208.8 11.8 206 -999
2010-08-20 09:14:50 51°23.29 2°43.873 208.8 11.8 206 -999
2010-08-20 09:15:00 51°23.272 2°43.86 209.6 7.9 205 -999
2010-08-20 09:15:10 51°23.253 2°43.85 209.6 7.9 205 -999
2010-08-20 09:15:20 51°23.236 2°43.845 209.6 7.9 205 -999
2010-08-20 09:15:30 51°23.218 2°43.844 209.6 7.9 205 -999
2010-08-20 09:15:40 51°23.203 2°43.845 209.6 7.9 205 -999
2010-08-20 09:15:50 51°23.187 2°43.847 209.6 7.9 205 -999
2010-08-20 09:16:00 51°23.174 2°43.849 185.5 5.2 173 -999
2010-08-20 09:16:10 51°23.159 2°43.853 185.5 5.2 173 -999
2010-08-20 09:16:20 51°23.146 2°43.856 185.5 5.2 173 -999
2010-08-20 09:16:30 51°23.132 2°43.859 185.5 5.2 173 -999
2010-08-20 09:16:40 51°23.12 2°43.862 185.5 5.2 173 -999
2010-08-20 09:16:50 51°23.107 2°43.864 185.5 5.2 173 -999
2010-08-20 09:17:00 51°23.095 2°43.866 189.3 4.4 176 -999
2010-08-20 09:17:10 51°23.083 2°43.866 189.3 4.4 176 -999
2010-08-20 09:17:20 51°23.071 2°43.865 189.3 4.4 176 -999
2010-08-20 09:17:30 51°23.06 2°43.863 189.3 4.4 176 -999
2010-08-20 09:17:40 51°23.05 2°43.858 189.3 4.4 176 -999
2010-08-20 09:17:50 51°23.039 2°43.852 189.3 4.4 176 -999
2010-08-20 09:18:00 51°23.031 2°43.845 215 3.6 208 -999
2010-08-20 09:18:10 51°23.022 2°43.836 215 3.6 208 -999
2010-08-20 09:18:20 51°23.015 2°43.828 215 3.6 208 -999
2010-08-20 09:18:30 51°23.006 2°43.819 215 3.6 208 -999
2010-08-20 09:18:40 51°22.998 2°43.811 215 3.6 208 -999
2010-08-20 09:18:50 51°22.989 2°43.803 215 3.6 208 -999
2010-08-20 09:19:00 51°22.981 2°43.797 215.6 3.5 210 -999
2010-08-20 09:19:10 51°22.972 2°43.788 215.6 3.5 210 -999
2010-08-20 09:19:20 51°22.964 2°43.781 215.6 3.5 210 -999
2010-08-20 09:19:30 51°22.954 2°43.773 215.6 3.5 210 -999
2010-08-20 09:19:40 51°22.947 2°43.766 215.6 3.5 210 -999
2010-08-20 09:19:50 51°22.937 2°43.757 215.6 3.5 210 -999
2010-08-20 09:20:00 51°22.929 2°43.75 217.3 3.6 211 -999
2010-08-20 09:20:10 51°22.921 2°43.742 217.3 3.6 211 -999
2010-08-20 09:20:20 51°22.912 2°43.733 217.3 3.6 211 -999
2010-08-20 09:20:30 51°22.903 2°43.723 217.3 3.6 211 -999
2010-08-20 09:20:40 51°22.896 2°43.715 217.3 3.6 211 -999
2010-08-20 09:20:50 51°22.887 2°43.706 217.3 3.6 211 -999
2010-08-20 09:21:00 51°22.879 2°43.697 221.1 3.7 218 -999
2010-08-20 09:21:10 51°22.871 2°43.688 221.1 3.7 218 -999
2010-08-20 09:21:20 51°22.863 2°43.677 221.1 3.7 218 -999
2010-08-20 09:21:30 51°22.855 2°43.667 221.1 3.7 218 -999
2010-08-20 09:21:40 51°22.848 2°43.657 221.1 3.7 218 -999
2010-08-20 09:21:50 51°22.84 2°43.645 221.1 3.7 218 -999
2010-08-20 09:22:00 51°22.834 2°43.635 227.4 3.6 223 -999
2010-08-20 09:22:10 51°22.827 2°43.623 227.4 3.6 223 -999
2010-08-20 09:22:20 51°22.821 2°43.61 227.4 3.6 223 -999
2010-08-20 09:22:30 51°22.815 2°43.596 227.4 3.6 223 -999
2010-08-20 09:22:40 51°22.81 2°43.586 227.4 3.6 223 -999
2010-08-20 09:22:50 51°22.804 2°43.574 227.4 3.6 223 -999
2010-08-20 09:23:00 51°22.799 2°43.565 230.5 2.89 232 -999
2010-08-20 09:23:10 51°22.795 2°43.555 230.5 2.89 232 -999
2010-08-20 09:23:20 51°22.791 2°43.546 230.5 2.89 232 -999
2010-08-20 09:23:30 51°22.788 2°43.538 230.5 2.89 232 -999
2010-08-20 09:23:40 51°22.784 2°43.531 230.5 2.89 232 -999
2010-08-20 09:23:50 51°22.78 2°43.524 230.5 2.89 232 -999
2010-08-20 09:24:00 51°22.777 2°43.518 231.5 1.8 235 -999
2010-08-20 09:24:10 51°22.774 2°43.512 231.5 1.8 235 -999
2010-08-20 09:24:20 51°22.771 2°43.506 231.5 1.8 235 -999
2010-08-20 09:24:30 51°22.768 2°43.502 231.5 1.8 235 -999
2010-08-20 09:24:40 51°22.767 2°43.498 231.5 1.8 235 -999
2010-08-20 09:24:50 51°22.765 2°43.494 231.5 1.8 235 -999
2010-08-20 09:25:00 51°22.764 2°43.492 230.9 0.9 231 -999
2010-08-20 09:25:10 51°22.763 2°43.489 230.9 0.9 231 -999
2010-08-20 09:25:20 51°22.762 2°43.487 230.9 0.9 231 -999
2010-08-20 09:25:30 51°22.761 2°43.484 230.9 0.9 231 -999
2010-08-20 09:25:40 51°22.761 2°43.483 230.9 0.9 231 -999
2010-08-20 09:25:50 51°22.76 2°43.482 230.9 0.9 231 -999
2010-08-20 09:26:00 51°22.76 2°43.481 230.4 0.29 271 -999
2010-08-20 09:26:10 51°22.76 2°43.48 230.4 0.29 271 -999
2010-08-20 09:26:20 51°22.761 2°43.48 230.4 0.29 271 -999
2010-08-20 09:26:30 51°22.761 2°43.479 230.4 0.29 271 -999
2010-08-20 09:26:40 51°22.762 2°43.48 230.4 0.29 271 -999
2010-08-20 09:26:50 51°22.764 2°43.48 230.4 0.29 271 -999
2010-08-20 09:27:00 51°22.766 2°43.483 233.9 1 47 -999
2010-08-20 09:27:10 51°22.769 2°43.487 233.9 1 47 -999
2010-08-20 09:27:20 51°22.77 2°43.49 233.9 1 47 -999
2010-08-20 09:27:30 51°22.773 2°43.493 233.9 1 47 -999
2010-08-20 09:27:40 51°22.776 2°43.496 233.9 1 47 -999
2010-08-20 09:27:50 51°22.779 2°43.5 233.9 1 47 -999
2010-08-20 09:28:00 51°22.781 2°43.503 238.5 1.3 38 -999
2010-08-20 09:28:10 51°22.784 2°43.507 238.5 1.3 38 -999
2010-08-20 09:28:20 51°22.787 2°43.51 238.5 1.3 38 -999
2010-08-20 09:28:30 51°22.789 2°43.514 238.5 1.3 38 -999
2010-08-20 09:28:40 51°22.792 2°43.517 238.5 1.3 38 -999
2010-08-20 09:28:50 51°22.796 2°43.521 238.5 1.3 38 -999
2010-08-20 09:29:00 51°22.798 2°43.525 242.5 1.39 39 -999
2010-08-20 09:29:10 51°22.801 2°43.529 242.5 1.39 39 -999
2010-08-20 09:29:20 51°22.804 2°43.532 242.5 1.39 39 -999
2010-08-20 09:29:30 51°22.807 2°43.536 242.5 1.39 39 -999
2010-08-20 09:29:40 51°22.81 2°43.539 242.5 1.39 39 -999
2010-08-20 09:29:50 51°22.813 2°43.541 242.5 1.39 39 -999
2010-08-20 09:30:00 51°22.815 2°43.542 238.4 0.8 27 -999
2010-08-20 09:30:10 51°22.816 2°43.543 238.4 0.8 27 -999
2010-08-20 09:30:20 51°22.817 2°43.543 238.4 0.8 27 -999
2010-08-20 09:30:30 51°22.818 2°43.543 238.4 0.8 27 -999
2010-08-20 09:30:40 51°22.818 2°43.543 238.4 0.8 27 -999
2010-08-20 09:30:50 51°22.817 2°43.541 238.4 0.8 27 -999
2010-08-20 09:31:00 51°22.816 2°43.54 230.1 0.4 229 -999
2010-08-20 09:31:10 51°22.816 2°43.538 230.1 0.4 229 -999
2010-08-20 09:31:20 51°22.815 2°43.537 230.1 0.4 229 -999
2010-08-20 09:31:30 51°22.813 2°43.536 230.1 0.4 229 -999
2010-08-20 09:31:40 51°22.81 2°43.534 230.1 0.4 229 -999
2010-08-20 09:31:50 51°22.807 2°43.531 230.1 0.4 229 -999
2010-08-20 09:32:00 51°22.802 2°43.527 219.8 1.69 211 -999
2010-08-20 09:32:10 51°22.797 2°43.524 219.8 1.69 211 -999
2010-08-20 09:32:20 51°22.791 2°43.52 219.8 1.69 211 -999
2010-08-20 09:32:30 51°22.784 2°43.514 219.8 1.69 211 -999
2010-08-20 09:32:40 51°22.779 2°43.507 219.8 1.69 211 -999
2010-08-20 09:32:50 51°22.773 2°43.499 219.8 1.69 211 -999
2010-08-20 09:33:00 51°22.767 2°43.491 225.3 2.89 221 -999
2010-08-20 09:33:10 51°22.76 2°43.482 225.3 2.89 221 -999
2010-08-20 09:33:20 51°22.755 2°43.472 225.3 2.89 221 -999
2010-08-20 09:33:30 51°22.749 2°43.462 225.3 2.89 221 -999
2010-08-20 09:33:40 51°22.743 2°43.45 225.3 2.89 221 -999
2010-08-20 09:33:50 51°22.738 2°43.435 225.3 2.89 221 -999
2010-08-20 09:34:00 51°22.736 2°43.422 244.8 3.5 252 -999
2010-08-20 09:34:10 51°22.734 2°43.407 244.8 3.5 252 -999
2010-08-20 09:34:20 51°22.735 2°43.393 244.8 3.5 252 -999
2010-08-20 09:34:30 51°22.739 2°43.379 244.8 3.5 252 -999
2010-08-20 09:34:40 51°22.745 2°43.367 244.8 3.5 252 -999
2010-08-20 09:34:50 51°22.754 2°43.355 244.8 3.5 252 -999
2010-08-20 09:35:00 51°22.763 2°43.349 313.5 4.09 338 -999
2010-08-20 09:35:10 51°22.776 2°43.344 313.5 4.09 338 -999
2010-08-20 09:35:20 51°22.788 2°43.344 313.5 4.09 338 -999
2010-08-20 09:35:30 51°22.802 2°43.345 313.5 4.09 338 -999
2010-08-20 09:35:40 51°22.817 2°43.346 313.5 4.09 338 -999
2010-08-20 09:35:50 51°22.835 2°43.346 313.5 4.09 338 -999
2010-08-20 09:36:00 51°22.849 2°43.346 347.6 5.9 359 -999
2010-08-20 09:36:10 51°22.867 2°43.347 347.6 5.9 359 -999
2010-08-20 09:36:20 51°22.882 2°43.35 347.6 5.9 359 -999
2010-08-20 09:36:30 51°22.898 2°43.359 347.6 5.9 359 -999
2010-08-20 09:36:40 51°22.912 2°43.373 347.6 5.9 359 -999
2010-08-20 09:36:50 51°22.926 2°43.39 347.6 5.9 359 -999
2010-08-20 09:37:00 51°22.936 2°43.405 38.7 5.4 42 -999
2010-08-20 09:37:10 51°22.947 2°43.42 38.7 5.4 42 -999
2010-08-20 09:37:20 51°22.956 2°43.436 38.7 5.4 42 -999
2010-08-20 09:37:30 51°22.964 2°43.45 38.7 5.4 42 -999
2010-08-20 09:37:40 51°22.971 2°43.464 38.7 5.4 42 -999
2010-08-20 09:37:50 51°22.977 2°43.478 38.7 5.4 42 -999
2010-08-20 09:38:00 51°22.981 2°43.488 64 2.89 58 -999
2010-08-20 09:38:10 51°22.985 2°43.498 64 2.89 58 -999
2010-08-20 09:38:20 51°22.988 2°43.506 64 2.89 58 -999
2010-08-20 09:38:30 51°22.992 2°43.516 64 2.89 58 -999
2010-08-20 09:38:40 51°22.995 2°43.525 64 2.89 58 -999
2010-08-20 09:38:50 51°22.998 2°43.535 64 2.89 58 -999
2010-08-20 09:39:00 51°23.001 2°43.543 88.5 2.29 61 -999
2010-08-20 09:39:10 51°23.004 2°43.553 88.5 2.29 61 -999
2010-08-20 09:39:20 51°23.007 2°43.561 88.5 2.29 61 -999
2010-08-20 09:39:30 51°23.011 2°43.57 88.5 2.29 61 -999
2010-08-20 09:39:40 51°23.013 2°43.578 88.5 2.29 61 -999
2010-08-20 09:39:50 51°23.016 2°43.587 88.5 2.29 61 -999
2010-08-20 09:40:00 51°23.019 2°43.595 97 2 64 -999
2010-08-20 09:40:10 51°23.022 2°43.607 97 2 64 -999
2010-08-20 09:40:20 51°23.024 2°43.627 97 2 64 -999
2010-08-20 09:40:30 51°23.03 2°43.659 97 2 64 -999
2010-08-20 09:40:40 51°23.042 2°43.701 97 2 64 -999
2010-08-20 09:40:50 51°23.061 2°43.737 97 2 64 -999
2010-08-20 09:41:00 51°23.084 2°43.767 40 12 37 -999
2010-08-20 09:41:10 51°23.117 2°43.802 40 12 37 -999
2010-08-20 09:41:20 51°23.146 2°43.831 40 12 37 -999
2010-08-20 09:41:30 51°23.182 2°43.869 40 12 37 -999
2010-08-20 09:41:40 51°23.211 2°43.902 40 12 37 -999
2010-08-20 09:41:50 51°23.246 2°43.946 40 12 37 -999
2010-08-20 09:42:00 51°23.276 2°43.99 42.2 14.69 44 -999
2010-08-20 09:42:10 51°23.305 2°44.034 42.2 14.69 44 -999
2010-08-20 09:42:20 51°23.333 2°44.073 42.2 14.69 44 -999
2010-08-20 09:42:30 51°23.368 2°44.115 42.2 14.69 44 -999
2010-08-20 09:42:40 51°23.398 2°44.148 42.2 14.69 44 -999
2010-08-20 09:42:50 51°23.436 2°44.183 42.2 14.69 44 -999
2010-08-20 09:43:00 51°23.466 2°44.205 24.6 14.4 25 -999
2010-08-20 09:43:10 51°23.507 2°44.23 24.6 14.4 25 -999
2010-08-20 09:43:20 51°23.544 2°44.247 24.6 14.4 25 -999
2010-08-20 09:43:30 51°23.587 2°44.26 24.6 14.4 25 -999
2010-08-20 09:43:40 51°23.621 2°44.266 24.6 14.4 25 -999
2010-08-20 09:43:50 51°23.655 2°44.272 24.6 14.4 25 -999
2010-08-20 09:44:00 51°23.685 2°44.283 6.5 10.59 15 -999
2010-08-20 09:44:10 51°23.709 2°44.302 6.5 10.59 15 -999
2010-08-20 09:44:20 51°23.729 2°44.326 6.5 10.59 15 -999
2010-08-20 09:44:30 51°23.747 2°44.355 6.5 10.59 15 -999
2010-08-20 09:44:40 51°23.758 2°44.376 6.5 10.59 15 -999
2010-08-20 09:44:50 51°23.775 2°44.408 6.5 10.59 15 -999
2010-08-20 09:45:00 51°23.788 2°44.43 48.2 7.59 47 -999
2010-08-20 09:45:10 51°23.804 2°44.456 48.2 7.59 47 -999
2010-08-20 09:45:20 51°23.819 2°44.478 48.2 7.59 47 -999
2010-08-20 09:45:30 51°23.835 2°44.498 48.2 7.59 47 -999
2010-08-20 09:45:40 51°23.849 2°44.514 48.2 7.59 47 -999
2010-08-20 09:45:50 51°23.867 2°44.532 48.2 7.59 47 -999
2010-08-20 09:46:00 51°23.881 2°44.544 22.8 6.29 28 -999
2010-08-20 09:46:10 51°23.895 2°44.555 22.8 6.29 28 -999
2010-08-20 09:46:20 51°23.909 2°44.564 22.8 6.29 28 -999
2010-08-20 09:46:30 51°23.922 2°44.57 22.8 6.29 28 -999
2010-08-20 09:46:40 51°23.935 2°44.574 22.8 6.29 28 -999
2010-08-20 09:46:50 51°23.947 2°44.576 22.8 6.29 28 -999
2010-08-20 09:47:00 51°23.96 2°44.572 337.3 4.9 347 -999
2010-08-20 09:47:10 51°23.972 2°44.562 337.3 4.9 347 -999
2010-08-20 09:47:20 51°23.981 2°44.555 337.3 4.9 347 -999
2010-08-20 09:47:30 51°23.988 2°44.546 337.3 4.9 347 -999
2010-08-20 09:47:40 51°23.994 2°44.538 337.3 4.9 347 -999
2010-08-20 09:47:50 51°23.999 2°44.531 337.3 4.9 347 -999
2010-08-20 09:48:00 51°24.004 2°44.524 280 2.1 315 -999
2010-08-20 09:48:10 51°24.007 2°44.518 280 2.1 315 -999
2010-08-20 09:48:20 51°24.01 2°44.513 280 2.1 315 -999
2010-08-20 09:48:30 51°24.013 2°44.508 280 2.1 315 -999
2010-08-20 09:48:40 51°24.016 2°44.505 280 2.1 315 -999
2010-08-20 09:48:50 51°24.018 2°44.501 280 2.1 315 -999
2010-08-20 09:49:00 51°24.021 2°44.499 263.6 1 327 -999
2010-08-20 09:49:10 51°24.024 2°44.496 263.6 1 327 -999
2010-08-20 09:49:20 51°24.026 2°44.494 263.6 1 327 -999
2010-08-20 09:49:30 51°24.028 2°44.493 263.6 1 327 -999
2010-08-20 09:49:40 51°24.03 2°44.492 263.6 1 327 -999
2010-08-20 09:49:50 51°24.032 2°44.491 263.6 1 327 -999
2010-08-20 09:50:00 51°24.035 2°44.49 256.3 0.8 339 -999
2010-08-20 09:50:10 51°24.036 2°44.489 256.3 0.8 339 -999
2010-08-20 09:50:20 51°24.038 2°44.487 256.3 0.8 339 -999
2010-08-20 09:50:30 51°24.04 2°44.484 256.3 0.8 339 -999
2010-08-20 09:50:40 51°24.042 2°44.482 256.3 0.8 339 -999
2010-08-20 09:50:50 51°24.043 2°44.477 256.3 0.8 339 -999
2010-08-20 09:51:00 51°24.044 2°44.473 250.5 1 289 -999
2010-08-20 09:51:10 51°24.044 2°44.469 250.5 1 289 -999
2010-08-20 09:51:20 51°24.044 2°44.466 250.5 1 289 -999
2010-08-20 09:51:30 51°24.043 2°44.463 250.5 1 289 -999
2010-08-20 09:51:40 51°24.042 2°44.46 250.5 1 289 -999
2010-08-20 09:51:50 51°24.04 2°44.457 250.5 1 289 -999
2010-08-20 09:52:00 51°24.038 2°44.455 225 1 223 -999
2010-08-20 09:52:10 51°24.036 2°44.451 225 1 223 -999
2010-08-20 09:52:20 51°24.034 2°44.448 225 1 223 -999
2010-08-20 09:52:30 51°24.031 2°44.443 225 1 223 -999
2010-08-20 09:52:40 51°24.028 2°44.44 225 1 223 -999
2010-08-20 09:52:50 51°24.025 2°44.436 225 1 223 -999
2010-08-20 09:53:00 51°24.022 2°44.432 221.4 1.39 218 -999
2010-08-20 09:53:10 51°24.018 2°44.429 221.4 1.39 218 -999
2010-08-20 09:53:20 51°24.015 2°44.425 221.4 1.39 218 -999
2010-08-20 09:53:30 51°24.011 2°44.422 221.4 1.39 218 -999
2010-08-20 09:53:40 51°24.007 2°44.418 221.4 1.39 218 -999
2010-08-20 09:53:50 51°24.003 2°44.413 221.4 1.39 218 -999
2010-08-20 09:54:00 51°23.999 2°44.409 224.4 1.69 223 -999
2010-08-20 09:54:10 51°23.996 2°44.403 224.4 1.69 223 -999
2010-08-20 09:54:20 51°23.992 2°44.399 224.4 1.69 223 -999
2010-08-20 09:54:30 51°23.988 2°44.394 224.4 1.69 223 -999
2010-08-20 09:54:40 51°23.985 2°44.39 224.4 1.69 223 -999
2010-08-20 09:54:50 51°23.98 2°44.384 224.4 1.69 223 -999
2010-08-20 09:55:00 51°23.977 2°44.38 223.5 1.8 221 -999
2010-08-20 09:55:10 51°23.973 2°44.374 223.5 1.8 221 -999
2010-08-20 09:55:20 51°23.969 2°44.37 223.5 1.8 221 -999
2010-08-20 09:55:30 51°23.964 2°44.366 223.5 1.8 221 -999
2010-08-20 09:55:40 51°23.96 2°44.361 223.5 1.8 221 -999
2010-08-20 09:55:50 51°23.957 2°44.357 223.5 1.8 221 -999
2010-08-20 09:56:00 51°23.953 2°44.354 220.9 1.39 208 -999
2010-08-20 09:56:10 51°23.95 2°44.352 220.9 1.39 208 -999
2010-08-20 09:56:20 51°23.947 2°44.349 220.9 1.39 208 -999
2010-08-20 09:56:30 51°23.944 2°44.347 220.9 1.39 208 -999
2010-08-20 09:56:40 51°23.941 2°44.345 220.9 1.39 208 -999
2010-08-20 09:56:50 51°23.939 2°44.343 220.9 1.39 208 -999
2010-08-20 09:57:00 51°23.937 2°44.341 225.3 0.9 214 -999
2010-08-20 09:57:10 51°23.935 2°44.339 225.3 0.9 214 -999
2010-08-20 09:57:20 51°23.934 2°44.337 225.3 0.9 214 -999
2010-08-20 09:57:30 51°23.932 2°44.335 225.3 0.9 214 -999
2010-08-20 09:57:40 51°23.931 2°44.333 225.3 0.9 214 -999
2010-08-20 09:57:50 51°23.93 2°44.331 225.3 0.9 214 -999
2010-08-20 09:58:00 51°23.929 2°44.33 228.6 0.5 224 -999
2010-08-20 09:58:10 51°23.928 2°44.328 228.6 0.5 224 -999
2010-08-20 09:58:20 51°23.927 2°44.327 228.6 0.5 224 -999
2010-08-20 09:58:30 51°23.926 2°44.326 228.6 0.5 224 -999
2010-08-20 09:58:40 51°23.925 2°44.326 228.6 0.5 224 -999
2010-08-20 09:58:50 51°23.925 2°44.325 228.6 0.5 224 -999
2010-08-20 09:59:00 51°23.924 2°44.325 227.5 0.29 191 -999
2010-08-20 09:59:10 51°23.924 2°44.324 227.5 0.29 191 -999
2010-08-20 09:59:20 51°23.923 2°44.323 227.5 0.29 191 -999
2010-08-20 09:59:30 51°23.923 2°44.321 227.5 0.29 191 -999
2010-08-20 09:59:40 51°23.923 2°44.319 227.5 0.29 191 -999
2010-08-20 09:59:50 51°23.923 2°44.317 227.5 0.29 191 -999
2010-08-20 10:00:00 51°23.924 2°44.316 239.3 0.29 305 -999
2010-08-20 10:00:10 51°23.924 2°44.315 239.3 0.29 305 -999
2010-08-20 10:00:20 51°23.925 2°44.314 239.3 0.29 305 -999
2010-08-20 10:00:30 51°23.926 2°44.314 239.3 0.29 305 -999
2010-08-20 10:00:40 51°23.927 2°44.314 239.3 0.29 305 -999
2010-08-20 10:00:50 51°23.928 2°44.315 239.3 0.29 305 -999
2010-08-20 10:01:00 51°23.929 2°44.316 239 0.5 26 -999
2010-08-20 10:01:10 51°23.93 2°44.317 239 0.5 26 -999
2010-08-20 10:01:20 51°23.932 2°44.318 239 0.5 26 -999
2010-08-20 10:01:30 51°23.934 2°44.32 239 0.5 26 -999
2010-08-20 10:01:40 51°23.935 2°44.321 239 0.5 26 -999
2010-08-20 10:01:50 51°23.937 2°44.323 239 0.5 26 -999
2010-08-20 10:02:00 51°23.939 2°44.325 244 0.9 27 -999
2010-08-20 10:02:10 51°23.941 2°44.327 244 0.9 27 -999
2010-08-20 10:02:20 51°23.944 2°44.329 244 0.9 27 -999
2010-08-20 10:02:30 51°23.947 2°44.331 244 0.9 27 -999
2010-08-20 10:02:40 51°23.949 2°44.334 244 0.9 27 -999
2010-08-20 10:02:50 51°23.952 2°44.337 244 0.9 27 -999
2010-08-20 10:03:00 51°23.954 2°44.339 251 1.19 38 -999
2010-08-20 10:03:10 51°23.957 2°44.343 251 1.19 38 -999
2010-08-20 10:03:20 51°23.959 2°44.345 251 1.19 38 -999
2010-08-20 10:03:30 51°23.963 2°44.349 251 1.19 38 -999
2010-08-20 10:03:40 51°23.965 2°44.352 251 1.19 38 -999
2010-08-20 10:03:50 51°23.968 2°44.356 251 1.19 38 -999
2010-08-20 10:04:00 51°23.971 2°44.359 257 1.3 40 -999
2010-08-20 10:04:10 51°23.974 2°44.363 257 1.3 40 -999
2010-08-20 10:04:20 51°23.977 2°44.366 257 1.3 40 -999
2010-08-20 10:04:30 51°23.98 2°44.369 257 1.3 40 -999
2010-08-20 10:04:40 51°23.982 2°44.371 257 1.3 40 -999
2010-08-20 10:04:50 51°23.985 2°44.373 257 1.3 40 -999
2010-08-20 10:05:00 51°23.986 2°44.374 245.4 0.69 22 -999
2010-08-20 10:05:10 51°23.988 2°44.376 245.4 0.69 22 -999
2010-08-20 10:05:20 51°23.989 2°44.377 245.4 0.69 22 -999
2010-08-20 10:05:30 51°23.991 2°44.378 245.4 0.69 22 -999
2010-08-20 10:05:40 51°23.991 2°44.379 245.4 0.69 22 -999
2010-08-20 10:05:50 51°23.992 2°44.381 245.4 0.69 22 -999
2010-08-20 10:06:00 51°23.992 2°44.381 223.1 0.2 50 -999
2010-08-20 10:06:10 51°23.991 2°44.382 223.1 0.2 50 -999
2010-08-20 10:06:20 51°23.991 2°44.382 223.1 0.2 50 -999
2010-08-20 10:06:30 51°23.99 2°44.381 223.1 0.2 50 -999
2010-08-20 10:06:40 51°23.988 2°44.379 223.1 0.2 50 -999
2010-08-20 10:06:50 51°23.986 2°44.377 223.1 0.2 50 -999
2010-08-20 10:07:00 51°23.984 2°44.375 223.8 1 220 -999
2010-08-20 10:07:10 51°23.981 2°44.372 223.8 1 220 -999
2010-08-20 10:07:20 51°23.978 2°44.37 223.8 1 220 -999
2010-08-20 10:07:30 51°23.975 2°44.367 223.8 1 220 -999
2010-08-20 10:07:40 51°23.971 2°44.363 223.8 1 220 -999
2010-08-20 10:07:50 51°23.967 2°44.36 223.8 1 220 -999
2010-08-20 10:08:00 51°23.963 2°44.356 220 1.69 211 -999
2010-08-20 10:08:10 51°23.959 2°44.352 220 1.69 211 -999
2010-08-20 10:08:20 51°23.955 2°44.348 220 1.69 211 -999
2010-08-20 10:08:30 51°23.951 2°44.344 220 1.69 211 -999
2010-08-20 10:08:40 51°23.948 2°44.341 220 1.69 211 -999
2010-08-20 10:08:50 51°23.944 2°44.339 220 1.69 211 -999
2010-08-20 10:09:00 51°23.942 2°44.337 218 1.19 194 -999
2010-08-20 10:09:10 51°23.939 2°44.336 218 1.19 194 -999
2010-08-20 10:09:20 51°23.937 2°44.334 218 1.19 194 -999
2010-08-20 10:09:30 51°23.934 2°44.333 218 1.19 194 -999
2010-08-20 10:09:40 51°23.933 2°44.332 218 1.19 194 -999
2010-08-20 10:09:50 51°23.931 2°44.331 218 1.19 194 -999
2010-08-20 10:10:00 51°23.93 2°44.33 229.3 0.4 234 -999
2010-08-20 10:10:10 51°23.929 2°44.329 229.3 0.4 234 -999
2010-08-20 10:10:20 51°23.929 2°44.328 229.3 0.4 234 -999
2010-08-20 10:10:30 51°23.927 2°44.326 229.3 0.4 234 -999
2010-08-20 10:10:40 51°23.926 2°44.325 229.3 0.4 234 -999
2010-08-20 10:10:50 51°23.924 2°44.322 229.3 0.4 234 -999
2010-08-20 10:11:00 51°23.923 2°44.319 229.9 0.8 235 -999
2010-08-20 10:11:10 51°23.922 2°44.316 229.9 0.8 235 -999
2010-08-20 10:11:20 51°23.92 2°44.314 229.9 0.8 235 -999
2010-08-20 10:11:30 51°23.919 2°44.31 229.9 0.8 235 -999
2010-08-20 10:11:40 51°23.918 2°44.309 229.9 0.8 235 -999
2010-08-20 10:11:50 51°23.918 2°44.306 229.9 0.8 235 -999
2010-08-20 10:12:00 51°23.917 2°44.305 233 0.4 261 -999
2010-08-20 10:12:10 51°23.917 2°44.304 233 0.4 261 -999
2010-08-20 10:12:20 51°23.917 2°44.303 233 0.4 261 -999
2010-08-20 10:12:30 51°23.917 2°44.303 233 0.4 261 -999
2010-08-20 10:12:40 51°23.917 2°44.303 233 0.4 261 -999
2010-08-20 10:12:50 51°23.918 2°44.304 233 0.4 261 -999
2010-08-20 10:13:00 51°23.918 2°44.304 229 0.29 58 -999
2010-08-20 10:13:10 51°23.919 2°44.306 229 0.29 58 -999
2010-08-20 10:13:20 51°23.92 2°44.307 229 0.29 58 -999
2010-08-20 10:13:30 51°23.921 2°44.309 229 0.29 58 -999
2010-08-20 10:13:40 51°23.921 2°44.311 229 0.29 58 -999
2010-08-20 10:13:50 51°23.922 2°44.313 229 0.29 58 -999
2010-08-20 10:14:00 51°23.924 2°44.315 227.5 0.69 50 -999
2010-08-20 10:14:10 51°23.925 2°44.318 227.5 0.69 50 -999
2010-08-20 10:14:20 51°23.927 2°44.32 227.5 0.69 50 -999
2010-08-20 10:14:30 51°23.928 2°44.324 227.5 0.69 50 -999
2010-08-20 10:14:40 51°23.93 2°44.327 227.5 0.69 50 -999
2010-08-20 10:14:50 51°23.932 2°44.33 227.5 0.69 50 -999
2010-08-20 10:15:00 51°23.933 2°44.333 225.6 1 50 -999
2010-08-20 10:15:10 51°23.936 2°44.337 225.6 1 50 -999
2010-08-20 10:15:20 51°23.937 2°44.34 225.6 1 50 -999
2010-08-20 10:15:30 51°23.94 2°44.344 225.6 1 50 -999
2010-08-20 10:15:40 51°23.942 2°44.347 225.6 1 50 -999
2010-08-20 10:15:50 51°23.944 2°44.351 225.6 1 50 -999
2010-08-20 10:16:00 51°23.946 2°44.355 225.4 1.19 43 -999
2010-08-20 10:16:10 51°23.949 2°44.359 225.4 1.19 43 -999
2010-08-20 10:16:20 51°23.951 2°44.363 225.4 1.19 43 -999
2010-08-20 10:16:30 51°23.954 2°44.367 225.4 1.19 43 -999
2010-08-20 10:16:40 51°23.956 2°44.371 225.4 1.19 43 -999
2010-08-20 10:16:50 51°23.958 2°44.375 225.4 1.19 43 -999
2010-08-20 10:17:00 51°23.96 2°44.379 226.5 1.3 41 -999
2010-08-20 10:17:10 51°23.963 2°44.384 226.5 1.3 41 -999
2010-08-20 10:17:20 51°23.966 2°44.387 226.5 1.3 41 -999
2010-08-20 10:17:30 51°23.968 2°44.391 226.5 1.3 41 -999
2010-08-20 10:17:40 51°23.97 2°44.394 226.5 1.3 41 -999
2010-08-20 10:17:50 51°23.971 2°44.395 226.5 1.3 41 -999
2010-08-20 10:18:00 51°23.972 2°44.396 226.6 0.29 12 -999
2010-08-20 10:18:10 51°23.972 2°44.396 226.6 0.29 12 -999
2010-08-20 10:18:20 51°23.972 2°44.396 226.6 0.29 12 -999
2010-08-20 10:18:30 51°23.971 2°44.393 226.6 0.29 12 -999
2010-08-20 10:18:40 51°23.971 2°44.39 226.6 0.29 12 -999
2010-08-20 10:18:50 51°23.969 2°44.386 226.6 0.29 12 -999
2010-08-20 10:19:00 51°23.967 2°44.383 228 1.19 234 -999
2010-08-20 10:19:10 51°23.964 2°44.378 228 1.19 234 -999
2010-08-20 10:19:20 51°23.961 2°44.373 228 1.19 234 -999
2010-08-20 10:19:30 51°23.957 2°44.367 228 1.19 234 -999
2010-08-20 10:19:40 51°23.954 2°44.361 228 1.19 234 -999
2010-08-20 10:19:50 51°23.95 2°44.355 228 1.19 234 -999
2010-08-20 10:20:00 51°23.947 2°44.35 225.5 1.6 227 -999
2010-08-20 10:20:10 51°23.943 2°44.345 225.5 1.6 227 -999
2010-08-20 10:20:20 51°23.94 2°44.342 225.5 1.6 227 -999
2010-08-20 10:20:30 51°23.937 2°44.339 225.5 1.6 227 -999
2010-08-20 10:20:40 51°23.935 2°44.336 225.5 1.6 227 -999
2010-08-20 10:20:50 51°23.933 2°44.333 225.5 1.6 227 -999
2010-08-20 10:21:00 51°23.932 2°44.331 230.9 0.8 235 -999
2010-08-20 10:21:10 51°23.931 2°44.327 230.9 0.8 235 -999
2010-08-20 10:21:20 51°23.931 2°44.325 230.9 0.8 235 -999
2010-08-20 10:21:30 51°23.93 2°44.323 230.9 0.8 235 -999
2010-08-20 10:21:40 51°23.931 2°44.321 230.9 0.8 235 -999
2010-08-20 10:21:50 51°23.93 2°44.319 230.9 0.8 235 -999
2010-08-20 10:22:00 51°23.931 2°44.318 233.9 0.29 278 -999
2010-08-20 10:22:10 51°23.93 2°44.318 233.9 0.29 278 -999
2010-08-20 10:22:20 51°23.931 2°44.318 233.9 0.29 278 -999
2010-08-20 10:22:30 51°23.931 2°44.319 233.9 0.29 278 -999
2010-08-20 10:22:40 51°23.931 2°44.319 233.9 0.29 278 -999
2010-08-20 10:22:50 51°23.932 2°44.321 233.9 0.29 278 -999
2010-08-20 10:23:00 51°23.932 2°44.322 224.5 0.4 47 -999
2010-08-20 10:23:10 51°23.933 2°44.324 224.5 0.4 47 -999
2010-08-20 10:23:20 51°23.934 2°44.325 224.5 0.4 47 -999
2010-08-20 10:23:30 51°23.935 2°44.327 224.5 0.4 47 -999
2010-08-20 10:23:40 51°23.936 2°44.33 224.5 0.4 47 -999
2010-08-20 10:23:50 51°23.937 2°44.332 224.5 0.4 47 -999
2010-08-20 10:24:00 51°23.939 2°44.334 230 0.69 58 -999
2010-08-20 10:24:10 51°23.94 2°44.336 230 0.69 58 -999
2010-08-20 10:24:20 51°23.942 2°44.338 230 0.69 58 -999
2010-08-20 10:24:30 51°23.944 2°44.34 230 0.69 58 -999
2010-08-20 10:24:40 51°23.946 2°44.343 230 0.69 58 -999
2010-08-20 10:24:50 51°23.948 2°44.346 230 0.69 58 -999
2010-08-20 10:25:00 51°23.95 2°44.348 239 1 42 -999
2010-08-20 10:25:10 51°23.952 2°44.351 239 1 42 -999
2010-08-20 10:25:20 51°23.955 2°44.353 239 1 42 -999
2010-08-20 10:25:30 51°23.957 2°44.356 239 1 42 -999
2010-08-20 10:25:40 51°23.959 2°44.358 239 1 42 -999
2010-08-20 10:25:50 51°23.961 2°44.362 239 1 42 -999
2010-08-20 10:26:00 51°23.964 2°44.365 247.3 1.1 44 -999
2010-08-20 10:26:10 51°23.967 2°44.369 247.3 1.1 44 -999
2010-08-20 10:26:20 51°23.969 2°44.371 247.3 1.1 44 -999
2010-08-20 10:26:30 51°23.972 2°44.374 247.3 1.1 44 -999
2010-08-20 10:26:40 51°23.975 2°44.378 247.3 1.1 44 -999
2010-08-20 10:26:50 51°23.977 2°44.38 247.3 1.1 44 -999
2010-08-20 10:27:00 51°23.979 2°44.382 251.1 1 19 -999
2010-08-20 10:27:10 51°23.982 2°44.383 251.1 1 19 -999
2010-08-20 10:27:20 51°23.983 2°44.382 251.1 1 19 -999
2010-08-20 10:27:30 51°23.985 2°44.381 251.1 1 19 -999
2010-08-20 10:27:40 51°23.986 2°44.379 251.1 1 19 -999
2010-08-20 10:27:50 51°23.987 2°44.376 251.1 1 19 -999
2010-08-20 10:28:00 51°23.987 2°44.372 242.8 0.9 273 -999
2010-08-20 10:28:10 51°23.987 2°44.367 242.8 0.9 273 -999
2010-08-20 10:28:20 51°23.985 2°44.361 242.8 0.9 273 -999
2010-08-20 10:28:30 51°23.982 2°44.354 242.8 0.9 273 -999
2010-08-20 10:28:40 51°23.979 2°44.348 242.8 0.9 273 -999
2010-08-20 10:28:50 51°23.974 2°44.341 242.8 0.9 273 -999
2010-08-20 10:29:00 51°23.97 2°44.336 221.4 2.1 214 -999
2010-08-20 10:29:10 51°23.965 2°44.332 221.4 2.1 214 -999
2010-08-20 10:29:20 51°23.961 2°44.328 221.4 2.1 214 -999
2010-08-20 10:29:30 51°23.956 2°44.325 221.4 2.1 214 -999
2010-08-20 10:29:40 51°23.953 2°44.324 221.4 2.1 214 -999
2010-08-20 10:29:50 51°23.949 2°44.322 221.4 2.1 214 -999
2010-08-20 10:30:00 51°23.945 2°44.322 209.5 1.3 185 -999
2010-08-20 10:30:10 51°23.941 2°44.323 209.5 1.3 185 -999
2010-08-20 10:30:20 51°23.939 2°44.324 209.5 1.3 185 -999
2010-08-20 10:30:30 51°23.936 2°44.324 209.5 1.3 185 -999
2010-08-20 10:30:40 51°23.934 2°44.324 209.5 1.3 185 -999
2010-08-20 10:30:50 51°23.933 2°44.324 209.5 1.3 185 -999
2010-08-20 10:31:00 51°23.931 2°44.324 221 0.5 168 -999
2010-08-20 10:31:10 51°23.931 2°44.324 221 0.5 168 -999
2010-08-20 10:31:20 51°23.931 2°44.324 221 0.5 168 -999
2010-08-20 10:31:30 51°23.932 2°44.323 221 0.5 168 -999
2010-08-20 10:31:40 51°23.932 2°44.322 221 0.5 168 -999
2010-08-20 10:31:50 51°23.933 2°44.321 221 0.5 168 -999
2010-08-20 10:32:00 51°23.934 2°44.32 244.8 0.59 319 -999
2010-08-20 10:32:10 51°23.934 2°44.318 244.8 0.59 319 -999
2010-08-20 10:32:20 51°23.935 2°44.316 244.8 0.59 319 -999
2010-08-20 10:32:30 51°23.934 2°44.314 244.8 0.59 319 -999
2010-08-20 10:32:40 51°23.933 2°44.312 244.8 0.59 319 -999
2010-08-20 10:32:50 51°23.932 2°44.311 244.8 0.59 319 -999
2010-08-20 10:33:00 51°23.93 2°44.312 213.3 0.8 168 -999
2010-08-20 10:33:10 51°23.927 2°44.312 213.3 0.8 168 -999
2010-08-20 10:33:20 51°23.924 2°44.313 213.3 0.8 168 -999
2010-08-20 10:33:30 51°23.921 2°44.313 213.3 0.8 168 -999
2010-08-20 10:33:40 51°23.918 2°44.313 213.3 0.8 168 -999
2010-08-20 10:33:50 51°23.916 2°44.312 213.3 0.8 168 -999
2010-08-20 10:34:00 51°23.913 2°44.311 218 0.69 198 -999
2010-08-20 10:34:10 51°23.912 2°44.311 218 0.69 198 -999
2010-08-20 10:34:20 51°23.911 2°44.31 218 0.69 198 -999
2010-08-20 10:34:30 51°23.91 2°44.31 218 0.69 198 -999
2010-08-20 10:34:40 51°23.909 2°44.31 218 0.69 198 -999
2010-08-20 10:34:50 51°23.909 2°44.31 218 0.69 198 -999
2010-08-20 10:35:00 51°23.91 2°44.31 228.8 0.2 348 -999
2010-08-20 10:35:10 51°23.91 2°44.31 228.8 0.2 348 -999
2010-08-20 10:35:20 51°23.91 2°44.311 228.8 0.2 348 -999
2010-08-20 10:35:30 51°23.911 2°44.312 228.8 0.2 348 -999
2010-08-20 10:35:40 51°23.912 2°44.312 228.8 0.2 348 -999
2010-08-20 10:35:50 51°23.913 2°44.313 228.8 0.2 348 -999
2010-08-20 10:36:00 51°23.915 2°44.315 230.8 0.59 21 -999
2010-08-20 10:36:10 51°23.916 2°44.316 230.8 0.59 21 -999
2010-08-20 10:36:20 51°23.918 2°44.318 230.8 0.59 21 -999
2010-08-20 10:36:30 51°23.919 2°44.321 230.8 0.59 21 -999
2010-08-20 10:36:40 51°23.921 2°44.322 230.8 0.59 21 -999
2010-08-20 10:36:50 51°23.922 2°44.325 230.8 0.59 21 -999
2010-08-20 10:37:00 51°23.924 2°44.328 228.6 0.9 38 -999
2010-08-20 10:37:10 51°23.926 2°44.331 228.6 0.9 38 -999
2010-08-20 10:37:20 51°23.928 2°44.333 228.6 0.9 38 -999
2010-08-20 10:37:30 51°23.93 2°44.337 228.6 0.9 38 -999
2010-08-20 10:37:40 51°23.932 2°44.34 228.6 0.9 38 -999
2010-08-20 10:37:50 51°23.934 2°44.343 228.6 0.9 38 -999
2010-08-20 10:38:00 51°23.936 2°44.346 227 1.1 51 -999
2010-08-20 10:38:10 51°23.939 2°44.35 227 1.1 51 -999
2010-08-20 10:38:20 51°23.941 2°44.353 227 1.1 51 -999
2010-08-20 10:38:30 51°23.943 2°44.357 227 1.1 51 -999
2010-08-20 10:38:40 51°23.946 2°44.36 227 1.1 51 -999
2010-08-20 10:38:50 51°23.948 2°44.363 227 1.1 51 -999
2010-08-20 10:39:00 51°23.951 2°44.367 228.8 1.19 42 -999
2010-08-20 10:39:10 51°23.954 2°44.371 228.8 1.19 42 -999
2010-08-20 10:39:20 51°23.956 2°44.375 228.8 1.19 42 -999
2010-08-20 10:39:30 51°23.959 2°44.379 228.8 1.19 42 -999
2010-08-20 10:39:40 51°23.961 2°44.382 228.8 1.19 42 -999
2010-08-20 10:39:50 51°23.965 2°44.387 228.8 1.19 42 -999
2010-08-20 10:40:00 51°23.967 2°44.39 232.3 1.3 42 -999
2010-08-20 10:40:10 51°23.969 2°44.393 232.3 1.3 42 -999
2010-08-20 10:40:20 51°23.971 2°44.395 232.3 1.3 42 -999
2010-08-20 10:40:30 51°23.972 2°44.397 232.3 1.3 42 -999
2010-08-20 10:40:40 51°23.973 2°44.397 232.3 1.3 42 -999
2010-08-20 10:40:50 51°23.973 2°44.397 232.3 1.3 42 -999
2010-08-20 10:41:00 51°23.973 2°44.396 228.5 0.2 243 -999
2010-08-20 10:41:10 51°23.973 2°44.395 228.5 0.2 243 -999
2010-08-20 10:41:20 51°23.972 2°44.394 228.5 0.2 243 -999
2010-08-20 10:41:30 51°23.97 2°44.392 228.5 0.2 243 -999
2010-08-20 10:41:40 51°23.969 2°44.389 228.5 0.2 243 -999
2010-08-20 10:41:50 51°23.967 2°44.386 228.5 0.2 243 -999
2010-08-20 10:42:00 51°23.965 2°44.383 227.9 1 227 -999
2010-08-20 10:42:10 51°23.963 2°44.379 227.9 1 227 -999
2010-08-20 10:42:20 51°23.961 2°44.376 227.9 1 227 -999
2010-08-20 10:42:30 51°23.959 2°44.371 227.9 1 227 -999
2010-08-20 10:42:40 51°23.956 2°44.367 227.9 1 227 -999
2010-08-20 10:42:50 51°23.954 2°44.362 227.9 1 227 -999
2010-08-20 10:43:00 51°23.951 2°44.358 228.3 1.5 223 -999
2010-08-20 10:43:10 51°23.948 2°44.353 228.3 1.5 223 -999
2010-08-20 10:43:20 51°23.945 2°44.348 228.3 1.5 223 -999
2010-08-20 10:43:30 51°23.942 2°44.343 228.3 1.5 223 -999
2010-08-20 10:43:40 51°23.94 2°44.339 228.3 1.5 223 -999
2010-08-20 10:43:50 51°23.938 2°44.335 228.3 1.5 223 -999
2010-08-20 10:44:00 51°23.935 2°44.331 229.3 1.1 230 -999
2010-08-20 10:44:10 51°23.933 2°44.328 229.3 1.1 230 -999
2010-08-20 10:44:20 51°23.932 2°44.325 229.3 1.1 230 -999
2010-08-20 10:44:30 51°23.93 2°44.322 229.3 1.1 230 -999
2010-08-20 10:44:40 51°23.928 2°44.32 229.3 1.1 230 -999
2010-08-20 10:44:50 51°23.926 2°44.318 229.3 1.1 230 -999
2010-08-20 10:45:00 51°23.925 2°44.317 225.8 0.69 208 -999
2010-08-20 10:45:10 51°23.923 2°44.315 225.8 0.69 208 -999
2010-08-20 10:45:20 51°23.922 2°44.313 225.8 0.69 208 -999
2010-08-20 10:45:30 51°23.922 2°44.312 225.8 0.69 208 -999
2010-08-20 10:45:40 51°23.922 2°44.31 225.8 0.69 208 -999
2010-08-20 10:45:50 51°23.921 2°44.309 225.8 0.69 208 -999
2010-08-20 10:46:00 51°23.921 2°44.308 234.5 0.2 249 -999
2010-08-20 10:46:10 51°23.921 2°44.308 234.5 0.2 249 -999
2010-08-20 10:46:20 51°23.92 2°44.308 234.5 0.2 249 -999
2010-08-20 10:46:30 51°23.92 2°44.309 234.5 0.2 249 -999
2010-08-20 10:46:40 51°23.92 2°44.31 234.5 0.2 249 -999